Airfield :
LOGIN :

Register | Disclaimer

   EN    FR    IT 

 










Legend :    VFR   Marginal VFR   IFR   Intensive IFR   Very Intensive IFR
Visi :
Ceiling :
>= 8 km
>= 3000ft
5 to 8 km
1000 to 3000 ft
1500m to 5 km
500 to 1000 ft
800 to 1500m
200 to 500 ft
< 800m
< 200 ft
Symbols :   Thunderstorms  Fog  Heavy snow  Heavy precipitations  Wind > 20 kt
SIGMETs :     Misc.  Thunderstorms  Icing  Turbulence  Mountain Waves  Volcanic Ashes






- Airport Elevation : 218 ft
- IATA code : LBG


LFPB - Paris / Le Bourget

CURRENT METAR :
  • 291100Z AUTO 24009KT 9999 BKN021 OVC100 14/10 Q1021 NOSIG

EXPIRED METARs :
  • 291030Z AUTO 23008KT 9999 FEW020 BKN100 13/10 Q1021 NOSIG
  • 291000Z AUTO 23010KT 9999 FEW036 SCT058 BKN078 13/09 Q1021 NOSIG
  • 290930Z AUTO 23011KT 9999 -RA NSC 13/09 Q1020 NOSIG
  • 290900Z AUTO 22008KT 200V260 9999 -RA FEW047 BKN084 OVC100 12/09 Q1020 NOSIG
  • 290830Z AUTO 23007KT CAVOK 12/09 Q1020 NOSIG

TAF TAF LFPB
Valid from the 29 at 06:00 until the 30 at 06:00 UTC


290500Z 2906/3006 22010G20KT CAVOK
PROB30
TEMPO 2917/2921 BKN014 BKN030
BECMG 3002/3004 BKN012
ATIS : +33 1 48 62 43 92



MET'MAP, your aeronautical weather chart ! - Copyright ORBIFLY December 2007 - Disclaimer

ORBIFLY MET'MAP TEAM :

Programming & Development : Alexandra Zaïnal
Concept & original design : Baudouin d'Aumeries
Assistance for programming : Marc-Olivier Méhu
Technical & hardware support : Manuel Goepfert

Contact : metmap@orbifly.com




SOURCES & CREDITS :

   NOAA